sensor_id;sensor_type;location;lat;lon;timestamp;pressure;altitude;pressure_sealevel;temperature
24740;BMP280;45234;48.148;17.128;2024-02-23T00:02:17;98101.00;;;11.37
24740;BMP280;45234;48.148;17.128;2024-02-23T00:04:44;98112.94;;;11.38
24740;BMP280;45234;48.148;17.128;2024-02-23T00:07:11;98108.03;;;11.42
24740;BMP280;45234;48.148;17.128;2024-02-23T00:09:38;98110.94;;;11.45
24740;BMP280;45234;48.148;17.128;2024-02-23T00:12:06;98100.53;;;11.45
24740;BMP280;45234;48.148;17.128;2024-02-23T00:14:35;98097.97;;;11.45
24740;BMP280;45234;48.148;17.128;2024-02-23T00:17:03;98097.66;;;11.42
24740;BMP280;45234;48.148;17.128;2024-02-23T00:19:31;98099.97;;;11.38
24740;BMP280;45234;48.148;17.128;2024-02-23T00:21:58;98085.91;;;11.34
24740;BMP280;45234;48.148;17.128;2024-02-23T00:24:31;98086.69;;;11.35
24740;BMP280;45234;48.148;17.128;2024-02-23T00:26:58;98087.00;;;11.38
24740;BMP280;45234;48.148;17.128;2024-02-23T00:29:25;98083.06;;;11.36
24740;BMP280;45234;48.148;17.128;2024-02-23T00:31:52;98085.66;;;11.36
24740;BMP280;45234;48.148;17.128;2024-02-23T00:34:19;98089.03;;;11.36
24740;BMP280;45234;48.148;17.128;2024-02-23T00:36:46;98103.59;;;11.37
24740;BMP280;45234;48.148;17.128;2024-02-23T00:39:12;98100.50;;;11.40
24740;BMP280;45234;48.148;17.128;2024-02-23T00:41:39;98093.75;;;11.39
24740;BMP280;45234;48.148;17.128;2024-02-23T00:44:06;98099.97;;;11.38
24740;BMP280;45234;48.148;17.128;2024-02-23T00:46:33;98103.34;;;11.39
24740;BMP280;45234;48.148;17.128;2024-02-23T00:49:01;98102.56;;;11.38
24740;BMP280;45234;48.148;17.128;2024-02-23T00:51:28;98103.09;;;11.40
24740;BMP280;45234;48.148;17.128;2024-02-23T00:53:54;98093.25;;;11.42
24740;BMP280;45234;48.148;17.128;2024-02-23T00:56:21;98096.38;;;11.44
24740;BMP280;45234;48.148;17.128;2024-02-23T00:58:58;98096.38;;;11.44
24740;BMP280;45234;48.148;17.128;2024-02-23T01:01:25;98092.47;;;11.42
24740;BMP280;45234;48.148;17.128;2024-02-23T01:03:53;98102.84;;;11.42
24740;BMP280;45234;48.148;17.128;2024-02-23T01:06:21;98093.78;;;11.44
24740;BMP280;45234;48.148;17.128;2024-02-23T01:08:48;98092.75;;;11.45
24740;BMP280;45234;48.148;17.128;2024-02-23T01:11:14;98098.75;;;11.46
24740;BMP280;45234;48.148;17.128;2024-02-23T01:13:42;98091.97;;;11.45
24740;BMP280;45234;48.148;17.128;2024-02-23T01:16:09;98089.63;;;11.43
24740;BMP280;45234;48.148;17.128;2024-02-23T01:18:35;98087.28;;;11.42
24740;BMP280;45234;48.148;17.128;2024-02-23T01:21:03;98081.31;;;11.41
24740;BMP280;45234;48.148;17.128;2024-02-23T01:23:30;98082.88;;;11.42
24740;BMP280;45234;48.148;17.128;2024-02-23T01:25:56;98075.88;;;11.43
24740;BMP280;45234;48.148;17.128;2024-02-23T01:28:25;98059.78;;;11.41
24740;BMP280;45234;48.148;17.128;2024-02-23T01:30:52;98059.00;;;11.40
24740;BMP280;45234;48.148;17.128;2024-02-23T01:33:19;98063.94;;;11.42
24740;BMP280;45234;48.148;17.128;2024-02-23T01:35:46;98063.22;;;11.46
24740;BMP280;45234;48.148;17.128;2024-02-23T01:38:13;98056.47;;;11.45
24740;BMP280;45234;48.148;17.128;2024-02-23T01:40:47;98062.44;;;11.46
24740;BMP280;45234;48.148;17.128;2024-02-23T01:43:14;98063.22;;;11.46
24740;BMP280;45234;48.148;17.128;2024-02-23T01:45:41;98070.00;;;11.47
24740;BMP280;45234;48.148;17.128;2024-02-23T01:48:08;98065.31;;;11.49
24740;BMP280;45234;48.148;17.128;2024-02-23T01:50:36;98060.91;;;11.50
24740;BMP280;45234;48.148;17.128;2024-02-23T01:53:04;98061.47;;;11.52
24740;BMP280;45234;48.148;17.128;2024-02-23T01:55:32;98060.19;;;11.54
24740;BMP280;45234;48.148;17.128;2024-02-23T01:58:03;98066.66;;;11.57
24740;BMP280;45234;48.148;17.128;2024-02-23T02:00:35;98066.16;;;11.55
24740;BMP280;45234;48.148;17.128;2024-02-23T02:03:04;98069.50;;;11.55
24740;BMP280;45234;48.148;17.128;2024-02-23T02:05:36;98070.03;;;11.52
24740;BMP280;45234;48.148;17.128;2024-02-23T02:08:05;98054.69;;;11.51
24740;BMP280;45234;48.148;17.128;2024-02-23T02:10:32;98063.63;;;11.60
24740;BMP280;45234;48.148;17.128;2024-02-23T02:13:03;98076.81;;;11.58
24740;BMP280;45234;48.148;17.128;2024-02-23T02:15:31;98076.34;;;11.61
24740;BMP280;45234;48.148;17.128;2024-02-23T02:17:58;98076.34;;;11.61
24740;BMP280;45234;48.148;17.128;2024-02-23T02:20:26;98075.25;;;11.57
24740;BMP280;45234;48.148;17.128;2024-02-23T02:22:54;98067.69;;;11.56
24740;BMP280;45234;48.148;17.128;2024-02-23T02:25:21;98069.59;;;11.60
24740;BMP280;45234;48.148;17.128;2024-02-23T02:27:48;98075.56;;;11.61
24740;BMP280;45234;48.148;17.128;2024-02-23T02:30:15;98077.03;;;11.57
24740;BMP280;45234;48.148;17.128;2024-02-23T02:32:42;98076.81;;;11.58
24740;BMP280;45234;48.148;17.128;2024-02-23T02:35:11;98082.00;;;11.58
24740;BMP280;45234;48.148;17.128;2024-02-23T02:37:39;98081.78;;;11.60
24740;BMP280;45234;48.148;17.128;2024-02-23T02:40:07;98083.03;;;11.57
24740;BMP280;45234;48.148;17.128;2024-02-23T02:42:34;98077.03;;;11.57
24740;BMP280;45234;48.148;17.128;2024-02-23T02:45:01;98083.59;;;11.59
24740;BMP280;45234;48.148;17.128;2024-02-23T02:47:30;98087.75;;;11.60
24740;BMP280;45234;48.148;17.128;2024-02-23T02:49:57;98096.03;;;11.62
24740;BMP280;45234;48.148;17.128;2024-02-23T02:52:24;98087.19;;;11.58
24740;BMP280;45234;48.148;17.128;2024-02-23T02:54:51;98089.56;;;11.60
24740;BMP280;45234;48.148;17.128;2024-02-23T02:57:18;98082.31;;;11.62
24740;BMP280;45234;48.148;17.128;2024-02-23T02:59:45;98097.59;;;11.63
24740;BMP280;45234;48.148;17.128;2024-02-23T03:02:13;98094.22;;;11.63
24740;BMP280;45234;48.148;17.128;2024-02-23T03:04:47;98088.22;;;11.57
24740;BMP280;45234;48.148;17.128;2024-02-23T03:07:15;98096.00;;;11.57
24740;BMP280;45234;48.148;17.128;2024-02-23T03:09:42;98093.91;;;11.54
24740;BMP280;45234;48.148;17.128;2024-02-23T03:12:10;98089.75;;;11.53
24740;BMP280;45234;48.148;17.128;2024-02-23T03:14:37;98094.41;;;11.56
24740;BMP280;45234;48.148;17.128;2024-02-23T03:17:08;98104.28;;;11.54
24740;BMP280;45234;48.148;17.128;2024-02-23T03:19:37;98101.16;;;11.52
24740;BMP280;45234;48.148;17.128;2024-02-23T03:22:04;98100.34;;;11.47
24740;BMP280;45234;48.148;17.128;2024-02-23T03:24:31;98101.03;;;11.42
24740;BMP280;45234;48.148;17.128;2024-02-23T03:26:58;98110.78;;;11.30
24740;BMP280;45234;48.148;17.128;2024-02-23T03:29:25;98106.72;;;11.17
24740;BMP280;45234;48.148;17.128;2024-02-23T03:31:57;98101.25;;;11.14
24740;BMP280;45234;48.148;17.128;2024-02-23T03:34:24;98102.28;;;11.13
24740;BMP280;45234;48.148;17.128;2024-02-23T03:36:51;98106.91;;;11.11
24740;BMP280;45234;48.148;17.128;2024-02-23T03:39:18;98112.59;;;11.08
24740;BMP280;45234;48.148;17.128;2024-02-23T03:41:45;98120.63;;;11.06
24740;BMP280;45234;48.148;17.128;2024-02-23T03:44:12;98115.38;;;11.01
24740;BMP280;45234;48.148;17.128;2024-02-23T03:46:39;98118.91;;;10.95
24740;BMP280;45234;48.148;17.128;2024-02-23T03:49:05;98124.81;;;10.90
24740;BMP280;45234;48.148;17.128;2024-02-23T03:51:32;98121.13;;;10.86
24740;BMP280;45234;48.148;17.128;2024-02-23T03:54:01;98120.22;;;10.76
24740;BMP280;45234;48.148;17.128;2024-02-23T03:56:28;98119.44;;;10.75
24740;BMP280;45234;48.148;17.128;2024-02-23T03:58:55;98124.53;;;10.70
24740;BMP280;45234;48.148;17.128;2024-02-23T04:01:22;98131.53;;;10.70
24740;BMP280;45234;48.148;17.128;2024-02-23T04:03:49;98137.47;;;10.70
24740;BMP280;45234;48.148;17.128;2024-02-23T04:06:16;98140.34;;;10.69
24740;BMP280;45234;48.148;17.128;2024-02-23T04:08:44;98140.03;;;10.65
24740;BMP280;45234;48.148;17.128;2024-02-23T04:11:13;98139.47;;;10.63
24740;BMP280;45234;48.148;17.128;2024-02-23T04:13:40;98150.84;;;10.62
24740;BMP280;45234;48.148;17.128;2024-02-23T04:16:07;98145.91;;;10.60
24740;BMP280;45234;48.148;17.128;2024-02-23T04:18:34;98147.25;;;10.63
24740;BMP280;45234;48.148;17.128;2024-02-23T04:21:01;98154.53;;;10.66
24740;BMP280;45234;48.148;17.128;2024-02-23T04:23:28;98158.38;;;10.64
24740;BMP280;45234;48.148;17.128;2024-02-23T04:25:55;98168.28;;;10.67
24740;BMP280;45234;48.148;17.128;2024-02-23T04:28:22;98175.59;;;10.70
24740;BMP280;45234;48.148;17.128;2024-02-23T04:30:49;98175.31;;;10.71
24740;BMP280;45234;48.148;17.128;2024-02-23T04:33:15;98184.91;;;10.71
24740;BMP280;45234;48.148;17.128;2024-02-23T04:35:43;98186.69;;;10.70
24740;BMP280;45234;48.148;17.128;2024-02-23T04:38:10;98191.13;;;10.70
24740;BMP280;45234;48.148;17.128;2024-02-23T04:40:37;98202.50;;;10.69
24740;BMP280;45234;48.148;17.128;2024-02-23T04:43:05;98213.38;;;10.71
24740;BMP280;45234;48.148;17.128;2024-02-23T04:45:31;98230.31;;;10.73
24740;BMP280;45234;48.148;17.128;2024-02-23T04:47:58;98240.66;;;10.73
24740;BMP280;45234;48.148;17.128;2024-02-23T04:50:25;98243.81;;;10.75
24740;BMP280;45234;48.148;17.128;2024-02-23T04:52:52;98253.03;;;10.71
24740;BMP280;45234;48.148;17.128;2024-02-23T04:55:19;98242.53;;;10.61
24740;BMP280;45234;48.148;17.128;2024-02-23T04:57:46;98250.38;;;10.49
24740;BMP280;45234;48.148;17.128;2024-02-23T05:00:13;98258.59;;;10.46
24740;BMP280;45234;48.148;17.128;2024-02-23T05:02:40;98272.34;;;10.47
24740;BMP280;45234;48.148;17.128;2024-02-23T05:05:07;98274.41;;;10.45
24740;BMP280;45234;48.148;17.128;2024-02-23T05:07:34;98273.59;;;10.44
24740;BMP280;45234;48.148;17.128;2024-02-23T05:10:01;98272.88;;;10.49
24740;BMP280;45234;48.148;17.128;2024-02-23T05:12:30;98271.31;;;10.48
24740;BMP280;45234;48.148;17.128;2024-02-23T05:14:57;98269.28;;;10.50
24740;BMP280;45234;48.148;17.128;2024-02-23T05:17:23;98275.47;;;10.49
24740;BMP280;45234;48.148;17.128;2024-02-23T05:19:51;98271.66;;;10.51
24740;BMP280;45234;48.148;17.128;2024-02-23T05:22:18;98265.75;;;10.56
24740;BMP280;45234;48.148;17.128;2024-02-23T05:24:46;98273.63;;;10.61
24740;BMP280;45234;48.148;17.128;2024-02-23T05:27:12;98278.25;;;10.59
24740;BMP280;45234;48.148;17.128;2024-02-23T05:29:39;98280.38;;;10.62
24740;BMP280;45234;48.148;17.128;2024-02-23T05:32:06;98277.22;;;10.60
24740;BMP280;45234;48.148;17.128;2024-02-23T05:34:33;98290.72;;;10.62
24740;BMP280;45234;48.148;17.128;2024-02-23T05:37:02;98294.81;;;10.58
24740;BMP280;45234;48.148;17.128;2024-02-23T05:39:29;98304.59;;;10.56
24740;BMP280;45234;48.148;17.128;2024-02-23T05:41:56;98306.13;;;10.52
24740;BMP280;45234;48.148;17.128;2024-02-23T05:44:23;98305.75;;;10.48
24740;BMP280;45234;48.148;17.128;2024-02-23T05:46:50;98309.06;;;10.44
24740;BMP280;45234;48.148;17.128;2024-02-23T05:49:17;98311.31;;;10.40
24740;BMP280;45234;48.148;17.128;2024-02-23T05:51:44;98306.06;;;10.35
24740;BMP280;45234;48.148;17.128;2024-02-23T05:54:11;98315.94;;;10.38
24740;BMP280;45234;48.148;17.128;2024-02-23T05:56:38;98325.50;;;10.38
24740;BMP280;45234;48.148;17.128;2024-02-23T05:59:05;98326.53;;;10.37
24740;BMP280;45234;48.148;17.128;2024-02-23T06:01:33;98335.06;;;10.37
24740;BMP280;45234;48.148;17.128;2024-02-23T06:04:00;98336.13;;;10.36
24740;BMP280;45234;48.148;17.128;2024-02-23T06:06:27;98345.44;;;10.37
24740;BMP280;45234;48.148;17.128;2024-02-23T06:08:55;98344.91;;;10.35
24740;BMP280;45234;48.148;17.128;2024-02-23T06:11:22;98347.50;;;10.35
24740;BMP280;45234;48.148;17.128;2024-02-23T06:13:49;98345.59;;;10.31
24740;BMP280;45234;48.148;17.128;2024-02-23T06:16:16;98362.78;;;10.37
24740;BMP280;45234;48.148;17.128;2024-02-23T06:18:43;98368.09;;;10.42
24740;BMP280;45234;48.148;17.128;2024-02-23T06:21:14;98374.91;;;10.48
24740;BMP280;45234;48.148;17.128;2024-02-23T06:23:42;98379.16;;;10.54
24740;BMP280;45234;48.148;17.128;2024-02-23T06:26:09;98379.50;;;10.57
24740;BMP280;45234;48.148;17.128;2024-02-23T06:28:37;98386.00;;;10.60
24740;BMP280;45234;48.148;17.128;2024-02-23T06:31:08;98389.41;;;10.60
24740;BMP280;45234;48.148;17.128;2024-02-23T06:33:35;98396.72;;;10.64
24740;BMP280;45234;48.148;17.128;2024-02-23T06:36:03;98396.25;;;10.67
24740;BMP280;45234;48.148;17.128;2024-02-23T06:38:31;98408.97;;;10.68
24740;BMP280;45234;48.148;17.128;2024-02-23T06:41:01;98402.13;;;10.62
24740;BMP280;45234;48.148;17.128;2024-02-23T06:43:28;98412.72;;;10.60
24740;BMP280;45234;48.148;17.128;2024-02-23T06:45:54;98407.66;;;10.54
24740;BMP280;45234;48.148;17.128;2024-02-23T06:48:22;98412.31;;;10.52
24740;BMP280;45234;48.148;17.128;2024-02-23T06:50:54;98417.34;;;10.47
24740;BMP280;45234;48.148;17.128;2024-02-23T06:53:20;98426.13;;;10.46
24740;BMP280;45234;48.148;17.128;2024-02-23T06:55:47;98428.66;;;10.41
24740;BMP280;45234;48.148;17.128;2024-02-23T06:58:14;98442.38;;;10.41
24740;BMP280;45234;48.148;17.128;2024-02-23T07:00:43;98438.66;;;10.37
24740;BMP280;45234;48.148;17.128;2024-02-23T07:03:10;98437.19;;;10.29
24740;BMP280;45234;48.148;17.128;2024-02-23T07:05:37;98436.66;;;10.27
24740;BMP280;45234;48.148;17.128;2024-02-23T07:08:04;98425.19;;;10.23
24740;BMP280;45234;48.148;17.128;2024-02-23T07:10:31;98447.47;;;10.24
24740;BMP280;45234;48.148;17.128;2024-02-23T07:13:00;98451.63;;;10.25
24740;BMP280;45234;48.148;17.128;2024-02-23T07:15:29;98462.09;;;10.31
24740;BMP280;45234;48.148;17.128;2024-02-23T07:17:56;98464.53;;;10.37
24740;BMP280;45234;48.148;17.128;2024-02-23T07:20:23;98460.84;;;10.45
24740;BMP280;45234;48.148;17.128;2024-02-23T07:22:50;98460.59;;;10.46
24740;BMP280;45234;48.148;17.128;2024-02-23T07:25:18;98478.97;;;10.45
24740;BMP280;45234;48.148;17.128;2024-02-23T07:27:46;98485.47;;;10.47
24740;BMP280;45234;48.148;17.128;2024-02-23T07:30:16;98489.09;;;10.46
24740;BMP280;45234;48.148;17.128;2024-02-23T07:32:44;98501.72;;;10.43
24740;BMP280;45234;48.148;17.128;2024-02-23T07:35:15;98497.97;;;10.39
24740;BMP280;45234;48.148;17.128;2024-02-23T07:37:42;98505.19;;;10.37
24740;BMP280;45234;48.148;17.128;2024-02-23T07:40:09;98514.13;;;10.41
24740;BMP280;45234;48.148;17.128;2024-02-23T07:42:36;98518.59;;;10.45
24740;BMP280;45234;48.148;17.128;2024-02-23T07:45:04;98533.69;;;10.48
24740;BMP280;45234;48.148;17.128;2024-02-23T07:47:32;98528.38;;;10.55
24740;BMP280;45234;48.148;17.128;2024-02-23T07:49:59;98529.50;;;10.59
24740;BMP280;45234;48.148;17.128;2024-02-23T07:52:26;98535.03;;;10.63
24740;BMP280;45234;48.148;17.128;2024-02-23T07:54:53;98542.13;;;10.67
24740;BMP280;45234;48.148;17.128;2024-02-23T07:57:20;98553.28;;;10.68
24740;BMP280;45234;48.148;17.128;2024-02-23T07:59:48;98544.72;;;10.67
24740;BMP280;45234;48.148;17.128;2024-02-23T08:02:15;98544.72;;;10.67
24740;BMP280;45234;48.148;17.128;2024-02-23T08:04:42;98537.72;;;10.68
24740;BMP280;45234;48.148;17.128;2024-02-23T08:07:10;98548.31;;;10.66
24740;BMP280;45234;48.148;17.128;2024-02-23T08:09:37;98537.72;;;10.68
24740;BMP280;45234;48.148;17.128;2024-02-23T08:12:04;98538.03;;;10.71
24740;BMP280;45234;48.148;17.128;2024-02-23T08:14:32;98552.44;;;10.79
24740;BMP280;45234;48.148;17.128;2024-02-23T08:17:00;98553.34;;;10.84
24740;BMP280;45234;48.148;17.128;2024-02-23T08:19:27;98558.38;;;10.91
24740;BMP280;45234;48.148;17.128;2024-02-23T08:21:54;98564.00;;;11.00
24740;BMP280;45234;48.148;17.128;2024-02-23T08:24:20;98556.91;;;11.07
24740;BMP280;45234;48.148;17.128;2024-02-23T08:26:47;98550.22;;;11.11
24740;BMP280;45234;48.148;17.128;2024-02-23T08:29:14;98558.13;;;11.16
24740;BMP280;45234;48.148;17.128;2024-02-23T08:31:41;98555.81;;;11.19
24740;BMP280;45234;48.148;17.128;2024-02-23T08:34:08;98560.19;;;11.31
24740;BMP280;45234;48.148;17.128;2024-02-23T08:36:35;98559.66;;;11.45
24740;BMP280;45234;48.148;17.128;2024-02-23T08:39:03;98576.53;;;11.59
24740;BMP280;45234;48.148;17.128;2024-02-23T08:41:30;98576.94;;;11.68
24740;BMP280;45234;48.148;17.128;2024-02-23T08:43:57;98583.44;;;11.71
24740;BMP280;45234;48.148;17.128;2024-02-23T08:46:24;98582.97;;;11.74
24740;BMP280;45234;48.148;17.128;2024-02-23T08:48:51;98586.00;;;11.82
24740;BMP280;45234;48.148;17.128;2024-02-23T08:51:18;98594.00;;;11.81
24740;BMP280;45234;48.148;17.128;2024-02-23T08:53:45;98596.84;;;11.79
24740;BMP280;45234;48.148;17.128;2024-02-23T08:56:12;98603.50;;;11.75
24740;BMP280;45234;48.148;17.128;2024-02-23T08:58:40;98595.41;;;11.72
24740;BMP280;45234;48.148;17.128;2024-02-23T09:01:06;98610.19;;;11.71
24740;BMP280;45234;48.148;17.128;2024-02-23T09:03:33;98611.06;;;11.77
24740;BMP280;45234;48.148;17.128;2024-02-23T09:06:00;98623.13;;;11.83
24740;BMP280;45234;48.148;17.128;2024-02-23T09:08:28;98622.63;;;11.86
24740;BMP280;45234;48.148;17.128;2024-02-23T09:10:54;98623.13;;;11.83
24740;BMP280;45234;48.148;17.128;2024-02-23T09:13:22;98624.19;;;11.87
24740;BMP280;45234;48.148;17.128;2024-02-23T09:15:49;98622.63;;;11.86
24740;BMP280;45234;48.148;17.128;2024-02-23T09:18:16;98631.47;;;11.85
24740;BMP280;45234;48.148;17.128;2024-02-23T09:20:43;98620.88;;;11.75
24740;BMP280;45234;48.148;17.128;2024-02-23T09:23:10;98620.88;;;11.75
24740;BMP280;45234;48.148;17.128;2024-02-23T09:25:37;98623.56;;;11.80
24740;BMP280;45234;48.148;17.128;2024-02-23T09:28:07;98633.00;;;11.86
24740;BMP280;45234;48.148;17.128;2024-02-23T09:30:34;98627.66;;;11.92
24740;BMP280;45234;48.148;17.128;2024-02-23T09:33:01;98631.56;;;11.90
24740;BMP280;45234;48.148;17.128;2024-02-23T09:35:28;98630.81;;;11.94
24740;BMP280;45234;48.148;17.128;2024-02-23T09:37:55;98631.16;;;11.98
24740;BMP280;45234;48.148;17.128;2024-02-23T09:40:22;98638.06;;;12.09
24740;BMP280;45234;48.148;17.128;2024-02-23T09:42:58;98645.56;;;12.22
24740;BMP280;45234;48.148;17.128;2024-02-23T09:45:26;98655.59;;;12.52
24740;BMP280;45234;48.148;17.128;2024-02-23T09:47:57;98658.03;;;12.59
24740;BMP280;45234;48.148;17.128;2024-02-23T09:50:25;98664.91;;;12.65
24740;BMP280;45234;48.148;17.128;2024-02-23T09:52:59;98660.09;;;12.57
24740;BMP280;45234;48.148;17.128;2024-02-23T09:55:28;98652.69;;;12.49
24740;BMP280;45234;48.148;17.128;2024-02-23T09:57:58;98652.69;;;12.49
24740;BMP280;45234;48.148;17.128;2024-02-23T10:00:25;98662.16;;;12.55
24740;BMP280;45234;48.148;17.128;2024-02-23T10:02:54;98656.97;;;12.55
24740;BMP280;45234;48.148;17.128;2024-02-23T10:05:26;98664.31;;;12.63
24740;BMP280;45234;48.148;17.128;2024-02-23T10:08:02;98670.13;;;12.70
24740;BMP280;45234;48.148;17.128;2024-02-23T10:10:36;98666.88;;;12.75
24740;BMP280;45234;48.148;17.128;2024-02-23T10:13:05;98669.03;;;12.83
24740;BMP280;45234;48.148;17.128;2024-02-23T10:15:32;98662.50;;;12.80
24740;BMP280;45234;48.148;17.128;2024-02-23T10:17:59;98646.19;;;12.85
24740;BMP280;45234;48.148;17.128;2024-02-23T10:20:27;98650.72;;;12.94
24740;BMP280;45234;48.148;17.128;2024-02-23T10:22:54;98661.75;;;13.01
24740;BMP280;45234;48.148;17.128;2024-02-23T10:25:21;98652.75;;;12.92
24740;BMP280;45234;48.148;17.128;2024-02-23T10:27:48;98650.72;;;12.94
24740;BMP280;45234;48.148;17.128;2024-02-23T10:30:16;98637.22;;;12.97
24740;BMP280;45234;48.148;17.128;2024-02-23T10:32:43;98644.19;;;13.14
24740;BMP280;45234;48.148;17.128;2024-02-23T10:35:16;98632.31;;;13.23
24740;BMP280;45234;48.148;17.128;2024-02-23T10:37:44;98627.63;;;13.20
24740;BMP280;45234;48.148;17.128;2024-02-23T10:40:16;98617.38;;;12.91
24740;BMP280;45234;48.148;17.128;2024-02-23T10:42:45;98603.38;;;12.92
24740;BMP280;45234;48.148;17.128;2024-02-23T10:45:19;98607.19;;;13.07
24740;BMP280;45234;48.148;17.128;2024-02-23T10:47:52;98619.84;;;13.25
24740;BMP280;45234;48.148;17.128;2024-02-23T10:50:21;98615.09;;;13.17
24740;BMP280;45234;48.148;17.128;2024-02-23T10:52:49;98615.16;;;13.22
24740;BMP280;45234;48.148;17.128;2024-02-23T10:55:17;98623.19;;;13.20
24740;BMP280;45234;48.148;17.128;2024-02-23T10:57:44;98616.44;;;13.19
24740;BMP280;45234;48.148;17.128;2024-02-23T11:00:12;98619.41;;;13.28
24740;BMP280;45234;48.148;17.128;2024-02-23T11:02:49;98612.09;;;13.30
24740;BMP280;45234;48.148;17.128;2024-02-23T11:05:17;98605.19;;;13.41
24740;BMP280;45234;48.148;17.128;2024-02-23T11:07:48;98590.63;;;13.40
24740;BMP280;45234;48.148;17.128;2024-02-23T11:10:16;98590.94;;;13.48
24740;BMP280;45234;48.148;17.128;2024-02-23T11:12:44;98596.00;;;13.60
24740;BMP280;45234;48.148;17.128;2024-02-23T11:15:27;98588.41;;;13.58
24740;BMP280;45234;48.148;17.128;2024-02-23T11:17:55;98594.59;;;13.79
24740;BMP280;45234;48.148;17.128;2024-02-23T11:20:23;98593.84;;;13.84
24740;BMP280;45234;48.148;17.128;2024-02-23T11:22:56;98598.44;;;13.40
24740;BMP280;45234;48.148;17.128;2024-02-23T11:25:27;98593.25;;;13.77
24740;BMP280;45234;48.148;17.128;2024-02-23T11:27:54;98579.56;;;13.86
24740;BMP280;45234;48.148;17.128;2024-02-23T11:30:21;98587.09;;;13.88
24740;BMP280;45234;48.148;17.128;2024-02-23T11:32:50;98588.56;;;13.74
24740;BMP280;45234;48.148;17.128;2024-02-23T11:35:26;98587.06;;;13.51
24740;BMP280;45234;48.148;17.128;2024-02-23T11:37:55;98593.63;;;13.58
24740;BMP280;45234;48.148;17.128;2024-02-23T11:40:27;98581.44;;;13.64
24740;BMP280;45234;48.148;17.128;2024-02-23T11:42:57;98582.66;;;13.56
24740;BMP280;45234;48.148;17.128;2024-02-23T11:45:25;98581.19;;;13.60
24740;BMP280;45234;48.148;17.128;2024-02-23T11:47:52;98574.44;;;13.64
24740;BMP280;45234;48.148;17.128;2024-02-23T11:50:19;98576.00;;;13.65
24740;BMP280;45234;48.148;17.128;2024-02-23T11:52:48;98581.44;;;13.64
24740;BMP280;45234;48.148;17.128;2024-02-23T11:55:24;98593.34;;;13.55
24740;BMP280;45234;48.148;17.128;2024-02-23T11:57:51;98588.47;;;13.63
24740;BMP280;45234;48.148;17.128;2024-02-23T12:00:31;98599.66;;;13.59
24740;BMP280;45234;48.148;17.128;2024-02-23T12:02:59;98587.25;;;13.44
24740;BMP280;45234;48.148;17.128;2024-02-23T12:05:26;98595.03;;;13.39
24740;BMP280;45234;48.148;17.128;2024-02-23T12:07:54;98598.06;;;13.31
24740;BMP280;45234;48.148;17.128;2024-02-23T12:10:22;98591.69;;;13.17
24740;BMP280;45234;48.148;17.128;2024-02-23T12:12:49;98598.81;;;13.05
24740;BMP280;45234;48.148;17.128;2024-02-23T12:15:16;98599.97;;;12.92
24740;BMP280;45234;48.148;17.128;2024-02-23T12:17:50;98599.03;;;12.76
24740;BMP280;45234;48.148;17.128;2024-02-23T12:20:17;98584.63;;;12.69
24740;BMP280;45234;48.148;17.128;2024-02-23T12:22:46;98567.63;;;12.61
24740;BMP280;45234;48.148;17.128;2024-02-23T12:25:13;98561.84;;;12.54
24740;BMP280;45234;48.148;17.128;2024-02-23T12:27:42;98567.84;;;12.38
24740;BMP280;45234;48.148;17.128;2024-02-23T12:30:16;98568.78;;;12.31
24740;BMP280;45234;48.148;17.128;2024-02-23T12:32:44;98568.47;;;12.28
24740;BMP280;45234;48.148;17.128;2024-02-23T12:35:12;98571.03;;;12.23
24740;BMP280;45234;48.148;17.128;2024-02-23T12:37:40;98570.72;;;12.19
24740;BMP280;45234;48.148;17.128;2024-02-23T12:40:11;98566.00;;;12.16
24740;BMP280;45234;48.148;17.128;2024-02-23T12:42:37;98551.94;;;12.12
24740;BMP280;45234;48.148;17.128;2024-02-23T12:45:04;98550.28;;;12.06
24740;BMP280;45234;48.148;17.128;2024-02-23T12:47:32;98555.38;;;12.01
24740;BMP280;45234;48.148;17.128;2024-02-23T12:50:00;98560.72;;;11.94
24740;BMP280;45234;48.148;17.128;2024-02-23T12:52:27;98564.13;;;11.95
24740;BMP280;45234;48.148;17.128;2024-02-23T12:54:54;98561.47;;;11.90
24740;BMP280;45234;48.148;17.128;2024-02-23T12:57:21;98545.88;;;11.90
24740;BMP280;45234;48.148;17.128;2024-02-23T12:59:48;98542.88;;;11.81
24740;BMP280;45234;48.148;17.128;2024-02-23T13:02:15;98555.63;;;11.83
24740;BMP280;45234;48.148;17.128;2024-02-23T13:04:42;98557.19;;;11.84
24740;BMP280;45234;48.148;17.128;2024-02-23T13:07:18;98560.97;;;11.76
24740;BMP280;45234;48.148;17.128;2024-02-23T13:09:45;98559.63;;;11.74
24740;BMP280;45234;48.148;17.128;2024-02-23T13:12:12;98551.66;;;11.63
24740;BMP280;45234;48.148;17.128;2024-02-23T13:14:40;98556.69;;;11.53
24740;BMP280;45234;48.148;17.128;2024-02-23T13:17:07;98549.44;;;11.39
24740;BMP280;45234;48.148;17.128;2024-02-23T13:19:34;98543.28;;;11.28
24740;BMP280;45234;48.148;17.128;2024-02-23T13:22:01;98541.72;;;11.27
24740;BMP280;45234;48.148;17.128;2024-02-23T13:24:28;98535.41;;;11.23
24740;BMP280;45234;48.148;17.128;2024-02-23T13:26:55;98536.78;;;11.14
24740;BMP280;45234;48.148;17.128;2024-02-23T13:29:22;98527.13;;;11.09
24740;BMP280;45234;48.148;17.128;2024-02-23T13:31:49;98525.84;;;11.12
24740;BMP280;45234;48.148;17.128;2024-02-23T13:34:16;98520.13;;;11.10
24740;BMP280;45234;48.148;17.128;2024-02-23T13:36:44;98518.56;;;11.09
24740;BMP280;45234;48.148;17.128;2024-02-23T13:39:11;98518.81;;;11.07
24740;BMP280;45234;48.148;17.128;2024-02-23T13:41:39;98512.16;;;11.00
24740;BMP280;45234;48.148;17.128;2024-02-23T13:44:06;98505.78;;;10.90
24740;BMP280;45234;48.148;17.128;2024-02-23T13:46:38;98511.75;;;10.91
24740;BMP280;45234;48.148;17.128;2024-02-23T13:49:06;98501.38;;;10.91
24740;BMP280;45234;48.148;17.128;2024-02-23T13:51:34;98516.81;;;10.98
24740;BMP280;45234;48.148;17.128;2024-02-23T13:54:01;98516.25;;;10.95
24740;BMP280;45234;48.148;17.128;2024-02-23T13:56:28;98504.19;;;10.89
24740;BMP280;45234;48.148;17.128;2024-02-23T13:58:55;98504.41;;;10.88
24740;BMP280;45234;48.148;17.128;2024-02-23T14:01:22;98502.06;;;10.86